sensor_id;sensor_type;location;lat;lon;timestamp;temperature;humidity
54930;DHT22;40833;53.238;6.576;2022-10-30T00:00:37;13.60;99.90
54930;DHT22;40833;53.238;6.576;2022-10-30T00:03:03;13.60;99.90
54930;DHT22;40833;53.238;6.576;2022-10-30T00:05:29;13.60;99.90
54930;DHT22;40833;53.238;6.576;2022-10-30T00:07:55;13.60;99.90
54930;DHT22;40833;53.238;6.576;2022-10-30T00:10:21;13.60;99.90
54930;DHT22;40833;53.238;6.576;2022-10-30T00:12:47;13.60;99.90
54930;DHT22;40833;53.238;6.576;2022-10-30T00:15:13;13.70;99.90
54930;DHT22;40833;53.238;6.576;2022-10-30T00:17:39;13.70;99.90
54930;DHT22;40833;53.238;6.576;2022-10-30T00:20:06;13.70;99.90
54930;DHT22;40833;53.238;6.576;2022-10-30T00:22:33;13.70;99.90
54930;DHT22;40833;53.238;6.576;2022-10-30T00:24:59;13.70;99.90
54930;DHT22;40833;53.238;6.576;2022-10-30T00:27:25;13.80;99.90
54930;DHT22;40833;53.238;6.576;2022-10-30T00:29:51;13.80;99.90
54930;DHT22;40833;53.238;6.576;2022-10-30T00:32:17;13.90;99.90
54930;DHT22;40833;53.238;6.576;2022-10-30T00:34:42;13.80;99.90
54930;DHT22;40833;53.238;6.576;2022-10-30T00:37:08;13.90;99.90
54930;DHT22;40833;53.238;6.576;2022-10-30T00:39:34;13.90;99.90
54930;DHT22;40833;53.238;6.576;2022-10-30T00:42:00;13.90;99.90
54930;DHT22;40833;53.238;6.576;2022-10-30T00:44:36;13.90;99.90
54930;DHT22;40833;53.238;6.576;2022-10-30T00:47:16;13.90;99.90
54930;DHT22;40833;53.238;6.576;2022-10-30T00:52:16;13.90;99.90
54930;DHT22;40833;53.238;6.576;2022-10-30T00:54:45;13.90;99.90
54930;DHT22;40833;53.238;6.576;2022-10-30T00:57:10;13.90;99.90
54930;DHT22;40833;53.238;6.576;2022-10-30T00:59:37;13.90;99.90
54930;DHT22;40833;53.238;6.576;2022-10-30T01:02:03;13.90;99.90
54930;DHT22;40833;53.238;6.576;2022-10-30T01:04:31;13.90;99.90
54930;DHT22;40833;53.238;6.576;2022-10-30T01:06:59;14.30;99.90
54930;DHT22;40833;53.238;6.576;2022-10-30T01:09:30;13.90;99.90
54930;DHT22;40833;53.238;6.576;2022-10-30T01:11:56;13.80;99.90
54930;DHT22;40833;53.238;6.576;2022-10-30T01:14:22;13.80;99.90
54930;DHT22;40833;53.238;6.576;2022-10-30T01:36:12;13.70;99.90
54930;DHT22;40833;53.238;6.576;2022-10-30T01:39:03;13.70;99.90
54930;DHT22;40833;53.238;6.576;2022-10-30T01:41:30;13.70;99.90
54930;DHT22;40833;53.238;6.576;2022-10-30T01:43:59;13.70;99.90
54930;DHT22;40833;53.238;6.576;2022-10-30T01:46:47;13.70;99.90
54930;DHT22;40833;53.238;6.576;2022-10-30T01:49:39;13.80;99.90
54930;DHT22;40833;53.238;6.576;2022-10-30T01:52:21;13.80;99.90
54930;DHT22;40833;53.238;6.576;2022-10-30T01:55:02;13.80;99.90
54930;DHT22;40833;53.238;6.576;2022-10-30T01:57:40;13.80;99.90
54930;DHT22;40833;53.238;6.576;2022-10-30T02:00:13;13.80;99.90
54930;DHT22;40833;53.238;6.576;2022-10-30T02:02:40;13.80;99.90
54930;DHT22;40833;53.238;6.576;2022-10-30T02:05:09;13.80;99.90
54930;DHT22;40833;53.238;6.576;2022-10-30T02:07:36;13.80;99.90
54930;DHT22;40833;53.238;6.576;2022-10-30T02:10:03;13.80;99.90
54930;DHT22;40833;53.238;6.576;2022-10-30T02:12:30;13.80;99.90
54930;DHT22;40833;53.238;6.576;2022-10-30T02:14:58;13.80;99.90
54930;DHT22;40833;53.238;6.576;2022-10-30T02:17:25;13.80;99.90
54930;DHT22;40833;53.238;6.576;2022-10-30T02:19:51;13.70;99.90
54930;DHT22;40833;53.238;6.576;2022-10-30T02:22:17;13.70;99.90
54930;DHT22;40833;53.238;6.576;2022-10-30T02:24:43;13.70;99.90
54930;DHT22;40833;53.238;6.576;2022-10-30T02:27:10;13.70;99.90
54930;DHT22;40833;53.238;6.576;2022-10-30T02:29:35;13.70;99.90
54930;DHT22;40833;53.238;6.576;2022-10-30T02:32:01;13.70;99.90
54930;DHT22;40833;53.238;6.576;2022-10-30T02:34:27;13.60;99.90
54930;DHT22;40833;53.238;6.576;2022-10-30T02:36:53;13.70;99.90
54930;DHT22;40833;53.238;6.576;2022-10-30T02:39:19;13.70;99.90
54930;DHT22;40833;53.238;6.576;2022-10-30T02:41:46;13.70;99.90
54930;DHT22;40833;53.238;6.576;2022-10-30T02:44:12;13.60;99.90
54930;DHT22;40833;53.238;6.576;2022-10-30T02:46:38;13.60;99.90
54930;DHT22;40833;53.238;6.576;2022-10-30T02:49:04;13.60;99.90
54930;DHT22;40833;53.238;6.576;2022-10-30T02:51:30;13.50;99.90
54930;DHT22;40833;53.238;6.576;2022-10-30T02:53:57;13.60;99.90
54930;DHT22;40833;53.238;6.576;2022-10-30T02:56:23;13.50;99.90
54930;DHT22;40833;53.238;6.576;2022-10-30T02:58:48;13.50;99.90
54930;DHT22;40833;53.238;6.576;2022-10-30T03:01:16;13.50;99.90
54930;DHT22;40833;53.238;6.576;2022-10-30T03:03:43;13.50;99.90
54930;DHT22;40833;53.238;6.576;2022-10-30T03:06:10;13.40;99.90
54930;DHT22;40833;53.238;6.576;2022-10-30T03:08:36;13.40;99.90
54930;DHT22;40833;53.238;6.576;2022-10-30T03:11:07;13.50;99.90
54930;DHT22;40833;53.238;6.576;2022-10-30T03:13:34;13.50;99.90
54930;DHT22;40833;53.238;6.576;2022-10-30T03:16:08;13.40;99.90
54930;DHT22;40833;53.238;6.576;2022-10-30T03:18:34;13.50;99.90
54930;DHT22;40833;53.238;6.576;2022-10-30T03:21:03;13.50;99.90
54930;DHT22;40833;53.238;6.576;2022-10-30T03:23:30;13.50;99.90
54930;DHT22;40833;53.238;6.576;2022-10-30T03:25:57;13.50;99.90
54930;DHT22;40833;53.238;6.576;2022-10-30T03:28:25;13.50;99.90
54930;DHT22;40833;53.238;6.576;2022-10-30T03:30:56;13.50;99.90
54930;DHT22;40833;53.238;6.576;2022-10-30T03:33:25;13.40;99.90
54930;DHT22;40833;53.238;6.576;2022-10-30T03:35:51;13.40;99.90
54930;DHT22;40833;53.238;6.576;2022-10-30T03:38:17;13.40;99.90
54930;DHT22;40833;53.238;6.576;2022-10-30T03:40:42;13.40;99.90
54930;DHT22;40833;53.238;6.576;2022-10-30T03:43:08;13.40;99.90
54930;DHT22;40833;53.238;6.576;2022-10-30T03:45:35;13.50;99.90
54930;DHT22;40833;53.238;6.576;2022-10-30T03:48:02;13.40;99.90
54930;DHT22;40833;53.238;6.576;2022-10-30T03:50:28;13.40;99.90
54930;DHT22;40833;53.238;6.576;2022-10-30T03:52:55;13.40;99.90
54930;DHT22;40833;53.238;6.576;2022-10-30T03:55:21;13.30;99.90
54930;DHT22;40833;53.238;6.576;2022-10-30T03:57:47;13.30;99.90
54930;DHT22;40833;53.238;6.576;2022-10-30T04:00:14;13.30;99.90
54930;DHT22;40833;53.238;6.576;2022-10-30T04:02:47;13.30;99.90
54930;DHT22;40833;53.238;6.576;2022-10-30T04:05:19;13.30;99.90
54930;DHT22;40833;53.238;6.576;2022-10-30T04:07:45;13.20;99.90
54930;DHT22;40833;53.238;6.576;2022-10-30T04:10:12;13.20;99.90
54930;DHT22;40833;53.238;6.576;2022-10-30T04:12:38;13.20;99.90
54930;DHT22;40833;53.238;6.576;2022-10-30T04:15:06;13.20;99.90
54930;DHT22;40833;53.238;6.576;2022-10-30T04:17:32;13.20;99.90
54930;DHT22;40833;53.238;6.576;2022-10-30T04:19:58;13.20;99.90
54930;DHT22;40833;53.238;6.576;2022-10-30T04:22:23;13.20;99.90
54930;DHT22;40833;53.238;6.576;2022-10-30T04:24:49;13.10;99.90
54930;DHT22;40833;53.238;6.576;2022-10-30T04:27:16;13.10;99.90
54930;DHT22;40833;53.238;6.576;2022-10-30T04:29:41;13.10;99.90
54930;DHT22;40833;53.238;6.576;2022-10-30T04:32:08;13.00;99.90
54930;DHT22;40833;53.238;6.576;2022-10-30T04:34:34;13.10;99.90
54930;DHT22;40833;53.238;6.576;2022-10-30T04:37:00;13.10;99.90
54930;DHT22;40833;53.238;6.576;2022-10-30T04:39:25;13.10;99.90
54930;DHT22;40833;53.238;6.576;2022-10-30T04:41:51;13.00;99.90
54930;DHT22;40833;53.238;6.576;2022-10-30T04:44:17;13.00;99.90
54930;DHT22;40833;53.238;6.576;2022-10-30T04:46:42;13.00;99.90
54930;DHT22;40833;53.238;6.576;2022-10-30T04:49:08;13.00;99.90
54930;DHT22;40833;53.238;6.576;2022-10-30T04:51:34;13.00;99.90
54930;DHT22;40833;53.238;6.576;2022-10-30T04:54:00;13.00;99.90
54930;DHT22;40833;53.238;6.576;2022-10-30T04:56:25;13.00;99.90
54930;DHT22;40833;53.238;6.576;2022-10-30T04:58:51;12.90;99.90
54930;DHT22;40833;53.238;6.576;2022-10-30T05:01:18;12.90;99.90
54930;DHT22;40833;53.238;6.576;2022-10-30T05:03:44;12.90;99.90
54930;DHT22;40833;53.238;6.576;2022-10-30T05:06:26;12.90;99.90
54930;DHT22;40833;53.238;6.576;2022-10-30T05:08:54;12.90;99.90
54930;DHT22;40833;53.238;6.576;2022-10-30T05:11:20;12.80;99.90
54930;DHT22;40833;53.238;6.576;2022-10-30T05:13:46;12.80;99.90
54930;DHT22;40833;53.238;6.576;2022-10-30T05:16:12;12.80;99.90
54930;DHT22;40833;53.238;6.576;2022-10-30T05:18:41;12.80;99.90
54930;DHT22;40833;53.238;6.576;2022-10-30T05:21:06;12.80;99.90
54930;DHT22;40833;53.238;6.576;2022-10-30T05:23:32;12.80;99.90
54930;DHT22;40833;53.238;6.576;2022-10-30T05:26:01;12.80;99.90
54930;DHT22;40833;53.238;6.576;2022-10-30T05:28:27;14.00;99.90
54930;DHT22;40833;53.238;6.576;2022-10-30T05:30:53;12.80;99.90
54930;DHT22;40833;53.238;6.576;2022-10-30T05:33:19;13.00;99.90
54930;DHT22;40833;53.238;6.576;2022-10-30T05:35:45;12.80;99.90
54930;DHT22;40833;53.238;6.576;2022-10-30T05:38:10;12.80;99.90
54930;DHT22;40833;53.238;6.576;2022-10-30T05:40:36;12.80;99.90
54930;DHT22;40833;53.238;6.576;2022-10-30T05:43:03;15.50;99.90
54930;DHT22;40833;53.238;6.576;2022-10-30T05:45:29;12.70;99.90
54930;DHT22;40833;53.238;6.576;2022-10-30T05:47:56;12.70;99.90
54930;DHT22;40833;53.238;6.576;2022-10-30T05:50:22;12.70;99.90
54930;DHT22;40833;53.238;6.576;2022-10-30T05:52:48;12.60;99.90
54930;DHT22;40833;53.238;6.576;2022-10-30T05:55:14;12.60;99.90
54930;DHT22;40833;53.238;6.576;2022-10-30T05:57:39;12.60;99.90
54930;DHT22;40833;53.238;6.576;2022-10-30T06:00:06;12.50;99.90
54930;DHT22;40833;53.238;6.576;2022-10-30T06:02:32;12.50;99.90
54930;DHT22;40833;53.238;6.576;2022-10-30T06:04:57;12.50;99.90
54930;DHT22;40833;53.238;6.576;2022-10-30T06:07:23;12.40;99.90
54930;DHT22;40833;53.238;6.576;2022-10-30T06:09:49;12.40;99.90
54930;DHT22;40833;53.238;6.576;2022-10-30T06:12:15;12.30;99.90
54930;DHT22;40833;53.238;6.576;2022-10-30T06:14:40;12.40;99.90
54930;DHT22;40833;53.238;6.576;2022-10-30T06:17:06;12.30;99.90
54930;DHT22;40833;53.238;6.576;2022-10-30T06:19:31;12.40;99.90
54930;DHT22;40833;53.238;6.576;2022-10-30T06:21:57;12.40;99.90
54930;DHT22;40833;53.238;6.576;2022-10-30T06:24:23;12.40;99.90
54930;DHT22;40833;53.238;6.576;2022-10-30T06:26:48;12.40;99.90
54930;DHT22;40833;53.238;6.576;2022-10-30T06:29:15;12.40;99.90
54930;DHT22;40833;53.238;6.576;2022-10-30T06:31:41;12.40;99.90
54930;DHT22;40833;53.238;6.576;2022-10-30T06:34:07;12.40;99.90
54930;DHT22;40833;53.238;6.576;2022-10-30T06:36:32;12.40;99.90
54930;DHT22;40833;53.238;6.576;2022-10-30T06:38:58;12.40;99.90
54930;DHT22;40833;53.238;6.576;2022-10-30T06:41:24;12.40;99.90
54930;DHT22;40833;53.238;6.576;2022-10-30T06:43:49;12.40;99.90
54930;DHT22;40833;53.238;6.576;2022-10-30T06:46:15;12.60;99.90
54930;DHT22;40833;53.238;6.576;2022-10-30T06:48:40;12.40;99.90
54930;DHT22;40833;53.238;6.576;2022-10-30T06:51:06;12.40;99.90
54930;DHT22;40833;53.238;6.576;2022-10-30T06:53:32;12.40;99.90
54930;DHT22;40833;53.238;6.576;2022-10-30T06:56:02;12.40;99.90
54930;DHT22;40833;53.238;6.576;2022-10-30T06:58:28;12.40;99.90
54930;DHT22;40833;53.238;6.576;2022-10-30T07:00:55;12.40;99.90
54930;DHT22;40833;53.238;6.576;2022-10-30T07:03:21;12.40;99.90
54930;DHT22;40833;53.238;6.576;2022-10-30T07:05:47;12.40;99.90
54930;DHT22;40833;53.238;6.576;2022-10-30T07:08:12;12.40;99.90
54930;DHT22;40833;53.238;6.576;2022-10-30T07:10:38;12.50;99.90
54930;DHT22;40833;53.238;6.576;2022-10-30T07:13:04;12.50;99.90
54930;DHT22;40833;53.238;6.576;2022-10-30T07:15:30;12.50;99.90
54930;DHT22;40833;53.238;6.576;2022-10-30T07:17:57;12.50;99.90
54930;DHT22;40833;53.238;6.576;2022-10-30T07:20:26;12.50;99.90
54930;DHT22;40833;53.238;6.576;2022-10-30T07:22:52;12.60;99.90
54930;DHT22;40833;53.238;6.576;2022-10-30T07:25:18;12.60;99.90
54930;DHT22;40833;53.238;6.576;2022-10-30T07:27:46;12.70;99.90
54930;DHT22;40833;53.238;6.576;2022-10-30T07:30:14;13.20;99.90
54930;DHT22;40833;53.238;6.576;2022-10-30T07:32:40;12.70;99.90
54930;DHT22;40833;53.238;6.576;2022-10-30T07:35:07;12.70;99.90
54930;DHT22;40833;53.238;6.576;2022-10-30T07:37:33;12.70;99.90
54930;DHT22;40833;53.238;6.576;2022-10-30T07:39:59;12.70;99.90
54930;DHT22;40833;53.238;6.576;2022-10-30T07:42:24;12.70;99.90
54930;DHT22;40833;53.238;6.576;2022-10-30T07:44:50;12.70;99.90
54930;DHT22;40833;53.238;6.576;2022-10-30T07:47:18;12.80;99.90
54930;DHT22;40833;53.238;6.576;2022-10-30T07:49:43;12.80;99.90
54930;DHT22;40833;53.238;6.576;2022-10-30T07:52:09;12.80;99.90
54930;DHT22;40833;53.238;6.576;2022-10-30T07:54:35;12.80;99.90
54930;DHT22;40833;53.238;6.576;2022-10-30T07:57:00;12.90;99.90
54930;DHT22;40833;53.238;6.576;2022-10-30T07:59:26;12.90;99.90
54930;DHT22;40833;53.238;6.576;2022-10-30T08:01:52;13.00;99.90
54930;DHT22;40833;53.238;6.576;2022-10-30T08:04:18;13.00;99.90
54930;DHT22;40833;53.238;6.576;2022-10-30T08:06:43;13.30;99.90
54930;DHT22;40833;53.238;6.576;2022-10-30T08:09:09;13.40;99.90
54930;DHT22;40833;53.238;6.576;2022-10-30T08:11:35;13.70;99.90
54930;DHT22;40833;53.238;6.576;2022-10-30T08:14:01;13.80;99.90
54930;DHT22;40833;53.238;6.576;2022-10-30T08:16:27;13.80;99.90
54930;DHT22;40833;53.238;6.576;2022-10-30T08:18:53;13.80;99.90
54930;DHT22;40833;53.238;6.576;2022-10-30T08:21:19;13.80;99.90
54930;DHT22;40833;53.238;6.576;2022-10-30T08:23:45;13.80;99.90
54930;DHT22;40833;53.238;6.576;2022-10-30T08:26:10;13.80;99.90
54930;DHT22;40833;53.238;6.576;2022-10-30T08:28:36;13.80;99.90
54930;DHT22;40833;53.238;6.576;2022-10-30T08:31:03;13.80;99.90
54930;DHT22;40833;53.238;6.576;2022-10-30T08:33:30;13.90;99.90
54930;DHT22;40833;53.238;6.576;2022-10-30T08:35:59;13.90;99.90
54930;DHT22;40833;53.238;6.576;2022-10-30T08:38:25;13.90;99.90
54930;DHT22;40833;53.238;6.576;2022-10-30T08:40:51;13.90;99.90
54930;DHT22;40833;53.238;6.576;2022-10-30T08:43:17;14.00;99.90
54930;DHT22;40833;53.238;6.576;2022-10-30T08:45:43;14.00;99.90
54930;DHT22;40833;53.238;6.576;2022-10-30T08:48:11;14.10;99.90
54930;DHT22;40833;53.238;6.576;2022-10-30T08:50:37;14.10;99.90
54930;DHT22;40833;53.238;6.576;2022-10-30T08:53:07;14.20;99.90
54930;DHT22;40833;53.238;6.576;2022-10-30T08:55:34;14.20;99.90
54930;DHT22;40833;53.238;6.576;2022-10-30T08:58:00;14.30;99.90
54930;DHT22;40833;53.238;6.576;2022-10-30T09:00:26;14.30;99.90
54930;DHT22;40833;53.238;6.576;2022-10-30T09:02:52;14.40;99.90
54930;DHT22;40833;53.238;6.576;2022-10-30T09:05:18;14.40;99.90
54930;DHT22;40833;53.238;6.576;2022-10-30T09:07:44;14.50;99.90
54930;DHT22;40833;53.238;6.576;2022-10-30T09:10:11;14.50;99.90
54930;DHT22;40833;53.238;6.576;2022-10-30T09:12:37;14.60;99.90
54930;DHT22;40833;53.238;6.576;2022-10-30T09:15:03;14.70;99.90
54930;DHT22;40833;53.238;6.576;2022-10-30T09:17:29;14.70;99.90
54930;DHT22;40833;53.238;6.576;2022-10-30T09:19:54;14.80;99.90
54930;DHT22;40833;53.238;6.576;2022-10-30T09:22:20;14.80;99.90
54930;DHT22;40833;53.238;6.576;2022-10-30T09:24:46;14.90;99.90
54930;DHT22;40833;53.238;6.576;2022-10-30T09:27:11;15.00;99.90
54930;DHT22;40833;53.238;6.576;2022-10-30T09:29:37;15.00;99.90
54930;DHT22;40833;53.238;6.576;2022-10-30T09:32:06;15.20;99.90
54930;DHT22;40833;53.238;6.576;2022-10-30T09:34:37;15.30;99.90
54930;DHT22;40833;53.238;6.576;2022-10-30T09:37:04;15.30;99.90
54930;DHT22;40833;53.238;6.576;2022-10-30T09:39:30;15.40;99.90
54930;DHT22;40833;53.238;6.576;2022-10-30T09:45:09;15.60;99.90
54930;DHT22;40833;53.238;6.576;2022-10-30T09:50:41;15.80;99.90
54930;DHT22;40833;53.238;6.576;2022-10-30T09:55:50;15.90;99.90
54930;DHT22;40833;53.238;6.576;2022-10-30T10:04:03;16.10;99.90
54930;DHT22;40833;53.238;6.576;2022-10-30T10:06:33;16.20;99.90
54930;DHT22;40833;53.238;6.576;2022-10-30T10:09:05;16.20;99.90
54930;DHT22;40833;53.238;6.576;2022-10-30T10:11:37;16.30;99.90
54930;DHT22;40833;53.238;6.576;2022-10-30T10:14:16;16.30;99.90
54930;DHT22;40833;53.238;6.576;2022-10-30T10:16:52;16.40;99.90
54930;DHT22;40833;53.238;6.576;2022-10-30T10:21:57;16.50;99.90
54930;DHT22;40833;53.238;6.576;2022-10-30T10:24:32;16.60;99.90
54930;DHT22;40833;53.238;6.576;2022-10-30T10:30:00;16.70;99.90
54930;DHT22;40833;53.238;6.576;2022-10-30T10:32:33;16.80;99.90
54930;DHT22;40833;53.238;6.576;2022-10-30T10:46:30;17.00;99.90
54930;DHT22;40833;53.238;6.576;2022-10-30T10:49:12;17.10;99.90
54930;DHT22;40833;53.238;6.576;2022-10-30T10:51:48;17.10;99.90
54930;DHT22;40833;53.238;6.576;2022-10-30T10:54:29;17.20;99.90
54930;DHT22;40833;53.238;6.576;2022-10-30T10:56:56;17.30;99.90
54930;DHT22;40833;53.238;6.576;2022-10-30T10:59:37;17.30;99.90
54930;DHT22;40833;53.238;6.576;2022-10-30T11:05:01;17.50;99.90
54930;DHT22;40833;53.238;6.576;2022-10-30T11:07:43;17.60;99.90
54930;DHT22;40833;53.238;6.576;2022-10-30T11:10:12;17.60;99.90
54930;DHT22;40833;53.238;6.576;2022-10-30T11:12:38;17.70;99.90
54930;DHT22;40833;53.238;6.576;2022-10-30T11:15:26;17.70;99.90
54930;DHT22;40833;53.238;6.576;2022-10-30T11:18:05;17.80;99.90
54930;DHT22;40833;53.238;6.576;2022-10-30T11:25:56;18.00;99.90
54930;DHT22;40833;53.238;6.576;2022-10-30T11:28:40;18.10;99.90
54930;DHT22;40833;53.238;6.576;2022-10-30T11:31:43;18.20;99.90
54930;DHT22;40833;53.238;6.576;2022-10-30T11:34:12;18.30;99.90
54930;DHT22;40833;53.238;6.576;2022-10-30T11:36:39;18.40;99.90
54930;DHT22;40833;53.238;6.576;2022-10-30T11:39:19;18.50;99.90
54930;DHT22;40833;53.238;6.576;2022-10-30T11:41:57;18.50;99.90
54930;DHT22;40833;53.238;6.576;2022-10-30T11:44:36;18.60;99.90
54930;DHT22;40833;53.238;6.576;2022-10-30T11:47:03;18.60;99.90
54930;DHT22;40833;53.238;6.576;2022-10-30T11:52:01;18.70;99.90
54930;DHT22;40833;53.238;6.576;2022-10-30T11:54:27;18.70;99.90
54930;DHT22;40833;53.238;6.576;2022-10-30T11:56:53;18.70;99.90
54930;DHT22;40833;53.238;6.576;2022-10-30T11:59:22;18.70;99.90
54930;DHT22;40833;53.238;6.576;2022-10-30T12:02:24;18.70;99.90
54930;DHT22;40833;53.238;6.576;2022-10-30T12:04:55;18.60;99.90
54930;DHT22;40833;53.238;6.576;2022-10-30T12:07:29;18.50;99.90
54930;DHT22;40833;53.238;6.576;2022-10-30T12:09:55;18.50;99.90
54930;DHT22;40833;53.238;6.576;2022-10-30T12:12:41;18.60;99.90
54930;DHT22;40833;53.238;6.576;2022-10-30T12:15:31;18.60;99.90
54930;DHT22;40833;53.238;6.576;2022-10-30T12:18:03;18.60;99.90
54930;DHT22;40833;53.238;6.576;2022-10-30T12:20:30;18.60;99.90
54930;DHT22;40833;53.238;6.576;2022-10-30T12:22:57;18.50;99.90
54930;DHT22;40833;53.238;6.576;2022-10-30T12:25:29;18.60;99.90
54930;DHT22;40833;53.238;6.576;2022-10-30T12:28:02;18.60;99.90
54930;DHT22;40833;53.238;6.576;2022-10-30T12:30:33;18.60;99.90
54930;DHT22;40833;53.238;6.576;2022-10-30T12:33:07;18.60;99.90
54930;DHT22;40833;53.238;6.576;2022-10-30T12:35:50;18.70;99.90
54930;DHT22;40833;53.238;6.576;2022-10-30T12:38:28;18.70;99.90
54930;DHT22;40833;53.238;6.576;2022-10-30T12:41:26;18.70;99.90
54930;DHT22;40833;53.238;6.576;2022-10-30T12:44:20;18.70;99.90
54930;DHT22;40833;53.238;6.576;2022-10-30T12:47:02;18.70;99.90
54930;DHT22;40833;53.238;6.576;2022-10-30T12:49:38;18.70;99.90
54930;DHT22;40833;53.238;6.576;2022-10-30T12:55:18;18.70;99.90
54930;DHT22;40833;53.238;6.576;2022-10-30T13:00:19;18.60;99.90
54930;DHT22;40833;53.238;6.576;2022-10-30T13:06:16;18.60;99.90
54930;DHT22;40833;53.238;6.576;2022-10-30T13:09:25;18.70;99.90
54930;DHT22;40833;53.238;6.576;2022-10-30T13:11:57;18.80;99.90
54930;DHT22;40833;53.238;6.576;2022-10-30T13:14:40;18.90;99.90
54930;DHT22;40833;53.238;6.576;2022-10-30T13:17:12;18.90;99.90
54930;DHT22;40833;53.238;6.576;2022-10-30T13:19:40;19.00;99.90
54930;DHT22;40833;53.238;6.576;2022-10-30T13:30:14;19.10;99.90
54930;DHT22;40833;53.238;6.576;2022-10-30T13:35:46;19.20;99.90
54930;DHT22;40833;53.238;6.576;2022-10-30T13:38:42;19.30;99.90
54930;DHT22;40833;53.238;6.576;2022-10-30T13:41:18;19.40;99.90
54930;DHT22;40833;53.238;6.576;2022-10-30T13:50:21;19.70;99.90
54930;DHT22;40833;53.238;6.576;2022-10-30T13:52:53;19.60;99.90
54930;DHT22;40833;53.238;6.576;2022-10-30T13:55:21;19.70;99.90
54930;DHT22;40833;53.238;6.576;2022-10-30T13:57:50;19.70;99.90
54930;DHT22;40833;53.238;6.576;2022-10-30T14:00:34;19.70;99.90
54930;DHT22;40833;53.238;6.576;2022-10-30T14:03:11;19.60;99.90
54930;DHT22;40833;53.238;6.576;2022-10-30T14:09:00;19.50;99.90
54930;DHT22;40833;53.238;6.576;2022-10-30T14:11:28;19.50;99.90
54930;DHT22;40833;53.238;6.576;2022-10-30T14:13:56;19.40;99.90
54930;DHT22;40833;53.238;6.576;2022-10-30T14:16:39;19.40;99.90
54930;DHT22;40833;53.238;6.576;2022-10-30T14:19:07;19.30;99.90
54930;DHT22;40833;53.238;6.576;2022-10-30T14:21:53;19.20;99.90
54930;DHT22;40833;53.238;6.576;2022-10-30T14:24:26;19.20;99.90
54930;DHT22;40833;53.238;6.576;2022-10-30T14:37:53;19.00;99.90
54930;DHT22;40833;53.238;6.576;2022-10-30T14:46:01;18.90;99.90
54930;DHT22;40833;53.238;6.576;2022-10-30T14:51:27;18.90;99.90
54930;DHT22;40833;53.238;6.576;2022-10-30T14:54:32;18.90;99.90
54930;DHT22;40833;53.238;6.576;2022-10-30T14:56:59;18.80;99.90
54930;DHT22;40833;53.238;6.576;2022-10-30T14:59:32;18.70;99.90
54930;DHT22;40833;53.238;6.576;2022-10-30T15:07:45;18.60;99.90
54930;DHT22;40833;53.238;6.576;2022-10-30T15:10:27;18.50;99.90
54930;DHT22;40833;53.238;6.576;2022-10-30T15:15:24;18.30;99.90
54930;DHT22;40833;53.238;6.576;2022-10-30T15:17:52;18.30;99.90
54930;DHT22;40833;53.238;6.576;2022-10-30T15:20:22;18.20;99.90
54930;DHT22;40833;53.238;6.576;2022-10-30T15:22:55;18.10;99.90
54930;DHT22;40833;53.238;6.576;2022-10-30T15:25:23;18.10;99.90
54930;DHT22;40833;53.238;6.576;2022-10-30T15:27:53;18.00;99.90
54930;DHT22;40833;53.238;6.576;2022-10-30T15:30:21;17.90;99.90
54930;DHT22;40833;53.238;6.576;2022-10-30T15:32:48;17.80;99.90
54930;DHT22;40833;53.238;6.576;2022-10-30T15:35:33;17.80;99.90
54930;DHT22;40833;53.238;6.576;2022-10-30T15:38:08;17.70;99.90
54930;DHT22;40833;53.238;6.576;2022-10-30T15:40:35;17.60;99.90
54930;DHT22;40833;53.238;6.576;2022-10-30T15:43:03;17.50;99.90
54930;DHT22;40833;53.238;6.576;2022-10-30T15:45:38;17.40;99.90
54930;DHT22;40833;53.238;6.576;2022-10-30T15:48:32;17.40;99.90
54930;DHT22;40833;53.238;6.576;2022-10-30T15:51:03;17.40;99.90
54930;DHT22;40833;53.238;6.576;2022-10-30T15:58:56;17.10;99.90
54930;DHT22;40833;53.238;6.576;2022-10-30T16:03:54;17.00;99.90
54930;DHT22;40833;53.238;6.576;2022-10-30T16:06:27;16.90;99.90
54930;DHT22;40833;53.238;6.576;2022-10-30T16:08:53;16.90;99.90
54930;DHT22;40833;53.238;6.576;2022-10-30T16:11:20;16.90;99.90
54930;DHT22;40833;53.238;6.576;2022-10-30T16:13:48;16.80;99.90
54930;DHT22;40833;53.238;6.576;2022-10-30T16:18:49;16.70;99.90
54930;DHT22;40833;53.238;6.576;2022-10-30T16:21:17;16.60;99.90
54930;DHT22;40833;53.238;6.576;2022-10-30T16:23:50;16.60;99.90
54930;DHT22;40833;53.238;6.576;2022-10-30T16:26:26;16.60;99.90
54930;DHT22;40833;53.238;6.576;2022-10-30T16:28:55;16.50;99.90
54930;DHT22;40833;53.238;6.576;2022-10-30T16:31:21;16.40;99.90
54930;DHT22;40833;53.238;6.576;2022-10-30T16:33:49;16.40;99.90
54930;DHT22;40833;53.238;6.576;2022-10-30T16:36:17;16.40;99.90
54930;DHT22;40833;53.238;6.576;2022-10-30T16:38:46;16.40;99.90
54930;DHT22;40833;53.238;6.576;2022-10-30T16:41:13;16.20;99.90
54930;DHT22;40833;53.238;6.576;2022-10-30T16:43:40;16.20;99.90
54930;DHT22;40833;53.238;6.576;2022-10-30T16:49:07;16.10;99.90
54930;DHT22;40833;53.238;6.576;2022-10-30T16:51:37;16.10;99.90
54930;DHT22;40833;53.238;6.576;2022-10-30T16:54:03;16.00;99.90
54930;DHT22;40833;53.238;6.576;2022-10-30T16:56:30;16.00;99.90
54930;DHT22;40833;53.238;6.576;2022-10-30T16:59:11;16.00;99.90
54930;DHT22;40833;53.238;6.576;2022-10-30T17:01:38;16.00;99.90
54930;DHT22;40833;53.238;6.576;2022-10-30T17:04:04;15.90;99.90
54930;DHT22;40833;53.238;6.576;2022-10-30T17:06:43;15.90;99.90
54930;DHT22;40833;53.238;6.576;2022-10-30T17:09:23;16.00;99.90
54930;DHT22;40833;53.238;6.576;2022-10-30T17:12:21;16.00;99.90
54930;DHT22;40833;53.238;6.576;2022-10-30T17:14:49;16.00;99.90
54930;DHT22;40833;53.238;6.576;2022-10-30T17:17:33;16.00;99.90
54930;DHT22;40833;53.238;6.576;2022-10-30T17:20:02;16.00;99.90
54930;DHT22;40833;53.238;6.576;2022-10-30T17:22:29;16.00;99.90
54930;DHT22;40833;53.238;6.576;2022-10-30T17:24:56;16.10;99.90
54930;DHT22;40833;53.238;6.576;2022-10-30T17:27:27;16.10;99.90
54930;DHT22;40833;53.238;6.576;2022-10-30T17:29:53;16.10;99.90
54930;DHT22;40833;53.238;6.576;2022-10-30T17:32:24;16.10;99.90
54930;DHT22;40833;53.238;6.576;2022-10-30T17:34:58;16.10;99.90
54930;DHT22;40833;53.238;6.576;2022-10-30T17:37:25;16.10;99.90
54930;DHT22;40833;53.238;6.576;2022-10-30T17:39:51;16.20;99.90
54930;DHT22;40833;53.238;6.576;2022-10-30T17:42:16;16.20;99.90
54930;DHT22;40833;53.238;6.576;2022-10-30T17:44:42;16.20;99.90
54930;DHT22;40833;53.238;6.576;2022-10-30T17:47:16;16.20;99.90
54930;DHT22;40833;53.238;6.576;2022-10-30T17:49:43;16.10;99.90
54930;DHT22;40833;53.238;6.576;2022-10-30T17:52:14;16.10;99.90
54930;DHT22;40833;53.238;6.576;2022-10-30T17:54:41;16.10;99.90
54930;DHT22;40833;53.238;6.576;2022-10-30T17:57:09;16.10;99.90
54930;DHT22;40833;53.238;6.576;2022-10-30T17:59:36;16.10;99.90